Terminal Aerodrome Forecast
Issued by NWS Omaha/Valley, NE

Home | Current Version | Previous Version | Graphics & Text | Print | Product List | Glossary On
Versions: 1 2 3 4 5 6 7 8 9 10 11 12 13 14 15 16 17 18 19 20 21 22 23 24 25 26 27 28 29
000
FTUS43 KOAX 311459 AAB
TAFOFK
TAF AMD
KOFK 311459Z 3115/0112 18007KT 5SM BR SCT005
     FM311600 18010KT P6SM SKC
     FM311800 18014G21KT P6SM SKC
     FM312200 17006KT P6SM SKC=

USA.gov is the U.S. government's official web portal to all federal, state and local government web resources and services.